ハバロフスク の空港の天気 - METARとTAF

ハバロフスク空港 ( UHHH / KHV ) - ロシア ハバロフスク
飛行場実況気象(Metar)
観測時間11/27 19:30 VLAT (11/27 09:30 UTC)
風向・風速不定 1m/s
視程10km以上
天気現象
なし
気温-14℃
湿度78%
気圧1022hPa
METARUHHH 270930Z VRB01MPS CAVOK M14/M17 Q1022 R23R/820345 R23L/////// NOSIG RMK QFE760/1014
過去の天気等 Google飛行場航空写真 Wunderground天気予報

過去48時間のMETAR

飛行場予報(TAF)
発表時間: 11/27 17:46 VLAT (11/27 07:46 UTC)
予報対象時間: 27日19時 VLAT ~ 29日1時 VLAT
風向・風速西 3m/s
視程10km以上
全天の4割程度の積乱雲 雲底高度 610m
27日19時 VLAT ~ 28日7時 VLAT に一時的に
視程3100m
天気現象弱いしゅう雪
全天の4割程度の雲 雲底高度 340m
全天の4割程度の積乱雲 雲底高度 610m
TAF UHHH 270746Z 2709/2815 27003MPS 9999 SCT020CB
TEMPO 2709/2721 3100 -SHSN SCT011 SCT020CB